Accueil
METAR-TAF:

METAR-TAF

Aéroports :

Aéroport international de Mexico

Mexico, Mexique

latitude: 19-26N, longitude: 099-06W, altitude: 2238 m

Observation

Le bulletin a été fait il y a 41 minutes, à 09:45 UTC
Vent 4 kt de sud
Température 14°C
Humidité 38%
Pression 1022 hPa
Visibilité: 24.1 km
Ciel clair

METAR: MMMX 210945Z 18004KT 15SM SKC 14/00 A3017 NOSIG

Heure: 04:26 (10:26 UTC)

Prévision

Le bulletin a été fait il y a 6 heures et 0 minutes, à 04:26 UTC
Prévision valable du 21 à 06 UTC au 22 à 12 UTC
Vent 6 kt de sud/sud-est
Visibilité: 10 km
Ciel clair
A partir de 21 à 1800 UTC
Vent 10 kt de sud/sud-ouest
Visibilité: 10 km
Nuages épars à une hauteur de 2000 ft
Evoluant progressivement
du 22 à 05 UTC au 22 à 07 UTC
Vent 4 kt de nord/nord-est
Ciel clair

TAF: MMMX 210426Z 2106/2212 16006KT P6SM SKC TX27/2121Z TN12/2112Z FM211800 20010KT P6SM SCT020 BECMG 2205/2207 02004KT SKC

Observations et prévisions météorologiques de plus de 4000 aéroports (messages METAR et TAF).

Les stations disponibles sont représentées par des disques jaunes et rouges sur la carte.

Passer la souris dessus pour voir le nom de la station.

Cliquer dessus pour voir les observations et prévisions météorologiques.

Pour changer de carte: cliquez sur les boutons verts avec une croix noire pour zoomer, sur le bouton vert avec un tiret pour effectuer un zoom arrière, ou sur les flèches vertes pour les cartes adjacentes.


METAR-TAF: